Hovedside
METAR-TAF:

METAR-TAF

Lufthavner :

Kärdla lufthavn

Kärdla, Estland

breddegrad: 58-59N, lengdegrad: 022-49E, høyde over havet: 5 m

Gjeldene værobservasjon

Denne rapporten ble laget for 9 timer og 44 minutter siden, klokken 15:50 UTC
Vind 7 kt fra Øst
Temperatur 3°C
Luftfuktighet 100%
Trykk 996 hPa
Sikt: 3600 m
Overskyet i en høyde av 200 ft
dis

METAR: EEKA 101550Z 10007KT 3600 BR OVC002 03/03 Q0996

Tid: 03:34 (01:34 UTC)

Varsel

Denne rapporten ble laget for 12 timer og 34 minutter siden, klokken 13:00 UTC
Varsel gyldig fra 10. klokken 14 UTC til 10. klokken 20 UTC
Vind 10 kt fra Øst-sørøst
Sikt: 8000 m
Overskyet i en høyde av 600 ft
Midlertidig
fra 10. klokken 14 UTC til 10. klokken 20 UTC
Sikt: 1000 m
Overskyet i en høyde av 200 ft
regn, duskregn, dis

TAF: EEKA 101300Z 1014/1020 11010KT 8000 OVC006 TEMPO 1014/1020 1000 RADZ BR OVC002

Værobservasjoner og værvarsel for over 4000 flyplasser (METAR- og TAF-rapporter).

Tilgjengelige stasjoner er representert av de røde og gule prikkene på kartet.

Hold musepekeren over prikken for å se navnet på stasjonen.

Klikk så for å se værobservasjoner og -varsler.

For å forandre kartet kan du klikke på den grønne knappen med svart kryss for å zoome inn, på den grønne knappen med strek for å zoome ut, eller på de grønne pilene for å se tilstøtende kart.


METAR-TAF: